Time;durP1;ratioP1;P1;durP2;ratioP2;P2;SDS_P1;SDS_P2;PMS_P1;PMS_P2;Temp;Humidity;BMP_temperature;BMP_pressure;BME280_temperature;BME280_humidity;BME280_pressure;Samples;Min_cycle;Max_cycle;Signal;HPM_P1;HPM_P2
2021/07/22 00:00:57;;;;;;;14.02;10.82;;;;;;;;;;2055855;28;20194;-52
2021/07/22 00:01:57;;;;;;;12.80;10.35;;;;;;;;;;2055787;28;20173;-56
2021/07/22 00:02:58;;;;;;;13.35;11.93;;;;;;;;;;2064662;28;20284;-57
2021/07/22 00:04:00;;;;;;;12.65;11.20;;;;;;;;;;2064666;28;21013;-56
2021/07/22 00:05:00;;;;;;;13.23;11.15;;;;;;;;;;2064765;28;20558;-52
2021/07/22 00:06:01;;;;;;;12.73;11.07;;;;;;;;;;2064694;28;20237;-55
2021/07/22 00:07:01;;;;;;;17.45;10.68;;;;;;;;;;2064810;28;20209;-54
2021/07/22 00:08:01;;;;;;;14.57;11.57;;;;;;;;;;2064906;28;20604;-58
2021/07/22 00:09:02;;;;;;;12.40;10.80;;;;;;;;;;2063921;28;20173;-58
2021/07/22 00:10:02;;;;;;;14.95;11.43;;;;;;;;;;2061719;28;20643;-58
2021/07/22 00:11:05;;;;;;;13.20;11.25;;;;;;;;;;2065875;28;20198;-56
2021/07/22 00:12:09;;;;;;;14.23;11.18;;;;;;;;;;2065232;28;20752;-56
2021/07/22 00:13:10;;;;;;;12.35;11.07;;;;;;;;;;2062914;28;20232;-55
2021/07/22 00:14:11;;;;;;;13.18;11.55;;;;;;;;;;2061025;28;20621;-56
2021/07/22 00:15:11;;;;;;;12.48;10.95;;;;;;;;;;2065678;28;20177;-54
2021/07/22 00:16:14;;;;;;;12.43;11.07;;;;;;;;;;2062917;28;20182;-56
2021/07/22 00:17:15;;;;;;;13.40;11.48;;;;;;;;;;2063382;28;20656;-57
2021/07/22 00:18:15;;;;;;;15.45;11.77;;;;;;;;;;2068730;28;20177;-57
2021/07/22 00:19:15;;;;;;;12.63;11.32;;;;;;;;;;2069120;28;20178;-58
2021/07/22 00:20:15;;;;;;;13.75;11.45;;;;;;;;;;2064420;28;20178;-57
2021/07/22 00:21:16;;;;;;;14.07;11.55;;;;;;;;;;2065782;28;20209;-56
2021/07/22 00:22:16;;;;;;;12.70;11.15;;;;;;;;;;2064481;28;20177;-58
2021/07/22 00:23:16;;;;;;;13.50;11.52;;;;;;;;;;2064794;28;20256;-57
2021/07/22 00:24:16;;;;;;;16.67;11.77;;;;;;;;;;2063869;28;20192;-54
2021/07/22 00:25:17;;;;;;;13.00;10.88;;;;;;;;;;2065241;28;20185;-58
2021/07/22 00:26:17;;;;;;;13.57;11.65;;;;;;;;;;2062746;28;20186;-53
2021/07/22 00:27:17;;;;;;;13.45;11.82;;;;;;;;;;2064917;28;20188;-58
2021/07/22 00:28:18;;;;;;;15.13;12.43;;;;;;;;;;2064551;28;20725;-56
2021/07/22 00:29:18;;;;;;;13.98;11.40;;;;;;;;;;2065249;28;20213;-56
2021/07/22 00:30:19;;;;;;;15.82;12.27;;;;;;;;;;2063642;28;20185;-56
2021/07/22 00:31:19;;;;;;;15.60;12.63;;;;;;;;;;2080083;22;20232;-56
2021/07/22 00:32:19;;;;;;;14.23;11.80;;;;;;;;;;2073821;28;20724;-53
2021/07/22 00:33:20;;;;;;;13.93;11.32;;;;;;;;;;2063012;28;20638;-53
2021/07/22 00:34:20;;;;;;;14.52;13.00;;;;;;;;;;2060631;28;20179;-59
2021/07/22 00:35:20;;;;;;;16.20;13.55;;;;;;;;;;2070669;28;20328;-57
2021/07/22 00:36:21;;;;;;;13.80;11.88;;;;;;;;;;2065735;28;20652;-59
2021/07/22 00:37:21;;;;;;;13.20;11.80;;;;;;;;;;2065221;28;20549;-57
2021/07/22 00:38:21;;;;;;;16.88;13.18;;;;;;;;;;2067444;28;20245;-57
2021/07/22 00:39:22;;;;;;;15.40;12.38;;;;;;;;;;2066565;28;20185;-59
2021/07/22 00:40:25;;;;;;;16.27;12.88;;;;;;;;;;2057316;28;20183;-57
2021/07/22 00:41:26;;;;;;;15.30;12.35;;;;;;;;;;2060379;28;20192;-58
2021/07/22 00:42:26;;;;;;;14.85;12.10;;;;;;;;;;2065204;28;20189;-58
2021/07/22 00:43:27;;;;;;;14.35;11.93;;;;;;;;;;2069219;28;20201;-57
2021/07/22 00:44:27;;;;;;;13.77;11.90;;;;;;;;;;2070700;28;20638;-57
2021/07/22 00:45:29;;;;;;;14.35;11.48;;;;;;;;;;2065174;28;20190;-59
2021/07/22 00:46:30;;;;;;;16.10;12.32;;;;;;;;;;2060868;28;20253;-56
2021/07/22 00:47:30;;;;;;;16.52;12.90;;;;;;;;;;2069759;28;20185;-57
2021/07/22 00:48:30;;;;;;;15.40;12.32;;;;;;;;;;2070536;28;20729;-55
2021/07/22 00:49:31;;;;;;;14.23;12.73;;;;;;;;;;2073677;28;20266;-57
2021/07/22 00:50:33;;;;;;;16.15;12.75;;;;;;;;;;2072460;28;20195;-59
2021/07/22 00:51:34;;;;;;;15.77;12.65;;;;;;;;;;2065350;28;20255;-58
2021/07/22 00:52:35;;;;;;;14.95;12.73;;;;;;;;;;2071902;28;20215;-58
2021/07/22 00:53:36;;;;;;;14.73;13.07;;;;;;;;;;2074065;28;20172;-58
2021/07/22 00:54:37;;;;;;;15.35;12.23;;;;;;;;;;2067293;28;20608;-58
2021/07/22 00:55:37;;;;;;;14.13;12.73;;;;;;;;;;2073277;28;20169;-56
2021/07/22 00:56:38;;;;;;;16.52;13.10;;;;;;;;;;2073266;28;20169;-57
2021/07/22 00:57:39;;;;;;;19.15;12.80;;;;;;;;;;2061433;28;20181;-55
2021/07/22 00:58:39;;;;;;;17.70;13.48;;;;;;;;;;2065873;28;20217;-57
2021/07/22 00:59:40;;;;;;;14.63;12.98;;;;;;;;;;2067366;28;20186;-59
2021/07/22 01:00:41;;;;;;;15.05;12.20;;;;;;;;;;2065716;28;20212;-57
2021/07/22 01:01:41;;;;;;;15.02;12.70;;;;;;;;;;2064289;28;20189;-56
2021/07/22 01:02:43;;;;;;;15.85;12.48;;;;;;;;;;2066469;28;20185;-58
2021/07/22 01:03:44;;;;;;;15.02;12.20;;;;;;;;;;2070885;28;20185;-55
2021/07/22 01:04:45;;;;;;;14.48;12.93;;;;;;;;;;2074377;28;20200;-55
2021/07/22 01:05:46;;;;;;;15.43;12.70;;;;;;;;;;2075131;28;20180;-59
2021/07/22 01:06:46;;;;;;;17.08;13.27;;;;;;;;;;2074829;28;20175;-59
2021/07/22 01:07:50;;;;;;;16.23;12.30;;;;;;;;;;2073311;28;20180;-56
2021/07/22 01:08:51;;;;;;;16.40;12.88;;;;;;;;;;2058708;28;20186;-57
2021/07/22 01:09:56;;;;;;;17.48;13.52;;;;;;;;;;2072595;28;20255;-56
2021/07/22 01:10:56;;;;;;;16.13;13.77;;;;;;;;;;2062284;28;20233;-59
2021/07/22 01:11:57;;;;;;;14.77;13.15;;;;;;;;;;2068402;28;20241;-58
2021/07/22 01:12:58;;;;;;;16.27;13.45;;;;;;;;;;2066622;28;20177;-58
2021/07/22 01:13:59;;;;;;;16.48;13.73;;;;;;;;;;2064873;28;20176;-57
2021/07/22 01:14:59;;;;;;;17.00;13.85;;;;;;;;;;2069337;28;20172;-58
2021/07/22 01:16:01;;;;;;;18.30;14.43;;;;;;;;;;2063304;28;20670;-58
2021/07/22 01:17:07;;;;;;;17.83;15.02;;;;;;;;;;2067303;28;20229;-57
2021/07/22 01:18:08;;;;;;;19.60;14.77;;;;;;;;;;2076216;28;20620;-58
2021/07/22 01:19:09;;;;;;;18.95;14.27;;;;;;;;;;2072331;28;20296;-58
2021/07/22 01:20:13;;;;;;;19.42;15.05;;;;;;;;;;2072106;28;20204;-59
2021/07/22 01:21:14;;;;;;;21.05;14.82;;;;;;;;;;2080815;28;20200;-59
2021/07/22 01:22:14;;;;;;;23.27;15.40;;;;;;;;;;2075979;28;20183;-58
2021/07/22 01:23:15;;;;;;;21.73;16.00;;;;;;;;;;2064756;28;20222;-59
2021/07/22 01:24:50;;;;;;;19.85;15.30;;;;;;;;;;2075010;28;20188;-59
2021/07/22 01:25:52;;;;;;;23.48;15.50;;;;;;;;;;2077673;28;20240;-59
2021/07/22 01:26:55;;;;;;;19.52;15.48;;;;;;;;;;2068003;28;20209;-57
2021/07/22 01:28:09;;;;;;;18.65;14.70;;;;;;;;;;2069317;28;20284;-59
2021/07/22 01:29:10;;;;;;;19.15;15.93;;;;;;;;;;2072992;28;20180;-59
2021/07/22 01:30:10;;;;;;;22.65;16.35;;;;;;;;;;2066876;28;20177;-59
2021/07/22 01:31:12;;;;;;;21.20;16.30;;;;;;;;;;2069599;28;20232;-60
2021/07/22 01:32:13;;;;;;;19.30;15.27;;;;;;;;;;2072172;28;20236;-59
2021/07/22 01:33:14;;;;;;;20.08;15.65;;;;;;;;;;2065728;28;20232;-59
2021/07/22 01:34:14;;;;;;;23.50;15.75;;;;;;;;;;2064480;28;20798;-57
2021/07/22 01:35:16;;;;;;;19.90;16.08;;;;;;;;;;2062103;28;20174;-57
2021/07/22 01:36:22;;;;;;;19.20;15.90;;;;;;;;;;2061192;28;20197;-57
2021/07/22 01:37:24;;;;;;;21.60;16.27;;;;;;;;;;2063321;28;20281;-55
2021/07/22 01:38:26;;;;;;;18.90;14.45;;;;;;;;;;2064865;28;20257;-57
2021/07/22 01:39:28;;;;;;;19.25;16.05;;;;;;;;;;2071745;28;20239;-56
2021/07/22 01:40:29;;;;;;;20.65;16.15;;;;;;;;;;2073164;28;20184;-55
2021/07/22 01:41:32;;;;;;;18.60;15.07;;;;;;;;;;2062578;28;20253;-57
2021/07/22 01:42:33;;;;;;;17.85;15.02;;;;;;;;;;2062555;28;20587;-55
2021/07/22 01:43:33;;;;;;;19.95;15.85;;;;;;;;;;2071203;28;20181;-56
2021/07/22 01:44:34;;;;;;;21.23;15.32;;;;;;;;;;2072628;28;20581;-52
2021/07/22 01:45:37;;;;;;;19.05;15.10;;;;;;;;;;2073046;28;20181;-57
2021/07/22 01:46:37;;;;;;;17.77;14.93;;;;;;;;;;2071641;28;20663;-55
2021/07/22 01:47:37;;;;;;;18.52;14.93;;;;;;;;;;2066582;28;20264;-56
2021/07/22 01:48:38;;;;;;;19.33;15.45;;;;;;;;;;2063128;28;20182;-52
2021/07/22 01:49:38;;;;;;;18.33;14.63;;;;;;;;;;2072605;28;20204;-54
2021/07/22 01:50:39;;;;;;;17.55;15.52;;;;;;;;;;2080131;28;20295;-53
2021/07/22 01:51:39;;;;;;;17.10;13.80;;;;;;;;;;2072450;28;20290;-56
2021/07/22 01:52:42;;;;;;;20.38;15.15;;;;;;;;;;2067992;28;20279;-52
2021/07/22 01:53:44;;;;;;;21.48;15.27;;;;;;;;;;2064944;28;20213;-58
2021/07/22 01:54:48;;;;;;;18.60;15.02;;;;;;;;;;2064757;28;20673;-58
2021/07/22 01:55:50;;;;;;;18.67;14.98;;;;;;;;;;2064284;28;20174;-56
2021/07/22 01:56:51;;;;;;;20.45;14.20;;;;;;;;;;2072739;28;20161;-54
2021/07/22 01:57:53;;;;;;;19.55;15.15;;;;;;;;;;2069901;28;20182;-56
2021/07/22 01:58:56;;;;;;;20.30;15.73;;;;;;;;;;2071819;28;20252;-58
2021/07/22 02:00:05;;;;;;;19.25;15.45;;;;;;;;;;2070537;28;20161;-56
2021/07/22 02:01:06;;;;;;;19.45;14.65;;;;;;;;;;2071791;28;20255;-56
2021/07/22 02:02:08;;;;;;;20.05;15.93;;;;;;;;;;2069465;28;20594;-57
2021/07/22 02:03:09;;;;;;;18.08;14.32;;;;;;;;;;2069553;28;20565;-57
2021/07/22 02:04:28;;;;;;;20.17;15.18;;;;;;;;;;2062505;28;20162;-56
2021/07/22 02:05:29;;;;;;;17.77;15.82;;;;;;;;;;2066037;28;20236;-56
2021/07/22 02:06:30;;;;;;;18.50;15.65;;;;;;;;;;2072983;28;20575;-52
2021/07/22 02:07:31;;;;;;;20.70;15.82;;;;;;;;;;2058387;28;20185;-53
2021/07/22 02:08:35;;;;;;;20.50;15.82;;;;;;;;;;2057112;28;20185;-56
2021/07/22 02:09:36;;;;;;;17.35;14.98;;;;;;;;;;2064715;28;20178;-58
2021/07/22 02:10:36;;;;;;;19.33;15.85;;;;;;;;;;2067232;28;20234;-56
2021/07/22 02:11:37;;;;;;;18.05;15.32;;;;;;;;;;2065097;28;20196;-57
2021/07/22 02:12:37;;;;;;;22.20;15.90;;;;;;;;;;2060579;28;20202;-55
2021/07/22 02:13:43;;;;;;;18.90;15.80;;;;;;;;;;2065122;28;20174;-50
2021/07/22 02:14:44;;;;;;;22.05;16.17;;;;;;;;;;2064841;28;20298;-54
2021/07/22 02:15:48;;;;;;;20.83;16.83;;;;;;;;;;2067705;28;20181;-53
2021/07/22 02:16:58;;;;;;;18.17;15.15;;;;;;;;;;2072184;28;20204;-52
2021/07/22 02:17:59;;;;;;;21.65;16.83;;;;;;;;;;2061763;28;20252;-53
2021/07/22 02:19:00;;;;;;;20.85;16.17;;;;;;;;;;2065588;28;20709;-50
2021/07/22 02:20:03;;;;;;;20.90;15.88;;;;;;;;;;2064035;28;20180;-55
2021/07/22 02:21:07;;;;;;;23.20;16.42;;;;;;;;;;2066912;28;20228;-56
2021/07/22 02:22:13;;;;;;;21.55;16.08;;;;;;;;;;2069088;28;20239;-53
2021/07/22 02:23:20;;;;;;;20.35;17.25;;;;;;;;;;2060530;28;20181;-56
2021/07/22 02:24:33;;;;;;;23.60;16.30;;;;;;;;;;2062940;28;20177;-55
2021/07/22 02:25:42;;;;;;;20.85;17.25;;;;;;;;;;2071882;28;20540;-57
2021/07/22 02:26:44;;;;;;;23.58;17.38;;;;;;;;;;2064714;28;20185;-52
2021/07/22 02:27:44;;;;;;;20.10;16.90;;;;;;;;;;2068205;28;20644;-53
2021/07/22 02:28:46;;;;;;;23.00;18.08;;;;;;;;;;2072121;28;20173;-56
2021/07/22 02:29:47;;;;;;;20.13;17.55;;;;;;;;;;2072028;28;20657;-55
2021/07/22 02:30:47;;;;;;;20.27;16.00;;;;;;;;;;2065104;28;20197;-52
2021/07/22 02:31:47;;;;;;;21.75;16.65;;;;;;;;;;2064571;28;20213;-56
2021/07/22 02:32:49;;;;;;;20.92;16.50;;;;;;;;;;2060077;28;20178;-56
2021/07/22 02:33:49;;;;;;;23.63;17.85;;;;;;;;;;2057406;28;20197;-51
2021/07/22 02:34:49;;;;;;;23.50;17.95;;;;;;;;;;2060398;28;20579;-51
2021/07/22 02:36:10;;;;;;;24.52;17.63;;;;;;;;;;2067536;28;20182;-54
2021/07/22 02:37:31;;;;;;;22.90;18.00;;;;;;;;;;2067386;28;20207;-56
2021/07/22 02:38:44;;;;;;;23.20;18.00;;;;;;;;;;2067593;28;20547;-54
2021/07/22 02:39:46;;;;;;;25.23;18.58;;;;;;;;;;2069476;28;20267;-50
2021/07/22 02:40:47;;;;;;;24.98;20.23;;;;;;;;;;2060348;28;20174;-57
2021/07/22 02:41:48;;;;;;;25.30;19.85;;;;;;;;;;2062833;28;20157;-55
2021/07/22 02:42:49;;;;;;;24.67;19.15;;;;;;;;;;2064999;28;20629;-49
2021/07/22 02:43:52;;;;;;;25.63;18.95;;;;;;;;;;2070515;28;20226;-54
2021/07/22 02:44:54;;;;;;;24.63;19.80;;;;;;;;;;2070940;28;20165;-59
2021/07/22 02:46:06;;;;;;;25.25;19.42;;;;;;;;;;2066237;28;20150;-56
2021/07/22 02:47:11;;;;;;;24.95;19.27;;;;;;;;;;2066170;28;20169;-53
2021/07/22 02:48:12;;;;;;;23.15;18.42;;;;;;;;;;2068942;28;20674;-50
2021/07/22 02:49:13;;;;;;;25.85;18.92;;;;;;;;;;2068357;28;20240;-52
2021/07/22 02:50:14;;;;;;;24.50;19.48;;;;;;;;;;2068591;28;20187;-50
2021/07/22 02:51:18;;;;;;;25.77;19.58;;;;;;;;;;2069959;28;20200;-50
2021/07/22 02:52:19;;;;;;;23.45;17.83;;;;;;;;;;2063111;28;20292;-53
2021/07/22 02:53:22;;;;;;;25.35;19.27;;;;;;;;;;2061529;28;20173;-55
2021/07/22 02:54:45;;;;;;;26.58;19.45;;;;;;;;;;2072249;28;20752;-52
2021/07/22 02:55:46;;;;;;;25.70;18.70;;;;;;;;;;2072465;28;20172;-54
2021/07/22 02:56:46;;;;;;;22.75;19.08;;;;;;;;;;2071242;28;20169;-53
2021/07/22 02:57:55;;;;;;;29.33;21.17;;;;;;;;;;2066514;28;20169;-54
2021/07/22 02:58:56;;;;;;;27.77;20.83;;;;;;;;;;2072395;28;20665;-57
2021/07/22 02:59:58;;;;;;;25.90;18.98;;;;;;;;;;2063885;28;20182;-55
2021/07/22 03:00:59;;;;;;;26.15;19.77;;;;;;;;;;2064033;28;20169;-51
2021/07/22 03:02:00;;;;;;;26.75;19.95;;;;;;;;;;2072340;28;20161;-56
2021/07/22 03:03:01;;;;;;;28.35;20.63;;;;;;;;;;2072589;28;20157;-55
2021/07/22 03:04:02;;;;;;;25.00;19.88;;;;;;;;;;2072426;28;20180;-55
2021/07/22 03:05:10;;;;;;;25.52;20.02;;;;;;;;;;2060379;28;20170;-57
2021/07/22 03:06:15;;;;;;;24.38;19.55;;;;;;;;;;2056598;28;20178;-53
2021/07/22 03:07:17;;;;;;;25.73;19.42;;;;;;;;;;2064829;28;20662;-53
2021/07/22 03:08:21;;;;;;;24.88;20.05;;;;;;;;;;2073365;28;20244;-56
2021/07/22 03:09:23;;;;;;;27.55;21.23;;;;;;;;;;2072387;28;20287;-58
2021/07/22 03:10:23;;;;;;;27.80;20.10;;;;;;;;;;2061233;28;20174;-53
2021/07/22 03:11:24;;;;;;;24.83;20.25;;;;;;;;;;2047944;29;20202;-53
2021/07/22 03:12:28;;;;;;;29.00;20.17;;;;;;;;;;2062961;28;20221;-58
2021/07/22 03:13:34;;;;;;;29.23;21.77;;;;;;;;;;2065060;28;20185;-60
2021/07/22 03:14:36;;;;;;;26.88;20.42;;;;;;;;;;2064685;28;20216;-56
2021/07/22 03:15:39;;;;;;;27.13;20.80;;;;;;;;;;2065252;28;20532;-60
2021/07/22 03:16:47;;;;;;;25.73;18.73;;;;;;;;;;2070959;28;20180;-59
2021/07/22 03:17:56;;;;;;;26.50;19.15;;;;;;;;;;2069961;28;20200;-59
2021/07/22 03:18:57;;;;;;;28.80;20.67;;;;;;;;;;2069809;28;20236;-59
2021/07/22 03:19:58;;;;;;;25.73;20.10;;;;;;;;;;2066744;28;20191;-54
2021/07/22 03:21:05;;;;;;;25.98;20.25;;;;;;;;;;2061268;28;20292;-53
2021/07/22 03:22:06;;;;;;;24.45;19.55;;;;;;;;;;2067204;28;20231;-51
2021/07/22 03:23:25;;;;;;;28.70;21.38;;;;;;;;;;2062727;28;20265;-55
2021/07/22 03:24:26;;;;;;;24.52;19.80;;;;;;;;;;2069930;28;20184;-53
2021/07/22 03:25:27;;;;;;;31.10;20.90;;;;;;;;;;2066124;28;20561;-60
2021/07/22 03:26:46;;;;;;;32.42;22.60;;;;;;;;;;2064714;28;20169;-58
2021/07/22 03:27:46;;;;;;;27.60;21.10;;;;;;;;;;2064583;28;20177;-56
2021/07/22 03:29:02;;;;;;;32.53;23.05;;;;;;;;;;2064439;28;20260;-56
2021/07/22 03:30:06;;;;;;;34.67;24.67;;;;;;;;;;2067375;28;20238;-56
2021/07/22 03:31:13;;;;;;;31.70;22.67;;;;;;;;;;2070187;28;20209;-57
2021/07/22 03:32:29;;;;;;;30.77;23.10;;;;;;;;;;2069357;28;20197;-57
2021/07/22 03:33:29;;;;;;;32.10;23.30;;;;;;;;;;2066428;28;20669;-56
2021/07/22 03:34:39;;;;;;;30.90;21.90;;;;;;;;;;2063539;28;20180;-58
2021/07/22 03:35:47;;;;;;;30.30;22.00;;;;;;;;;;2060990;28;20557;-57
2021/07/22 03:36:51;;;;;;;34.28;24.85;;;;;;;;;;2057313;28;20197;-58
2021/07/22 03:37:53;;;;;;;33.08;23.67;;;;;;;;;;2065533;28;20198;-57
2021/07/22 03:38:57;;;;;;;35.90;24.20;;;;;;;;;;2065777;28;20616;-58
2021/07/22 03:40:09;;;;;;;33.00;22.55;;;;;;;;;;2065768;28;20165;-60
2021/07/22 03:41:15;;;;;;;31.05;23.92;;;;;;;;;;2065818;28;20193;-58
2021/07/22 03:42:16;;;;;;;29.42;21.30;;;;;;;;;;2069962;28;20188;-60
2021/07/22 03:43:35;;;;;;;32.58;23.05;;;;;;;;;;2073564;28;20250;-58
2021/07/22 03:44:36;;;;;;;30.23;23.75;;;;;;;;;;2072840;28;20185;-55
2021/07/22 03:45:38;;;;;;;29.55;22.42;;;;;;;;;;2062998;28;20178;-57
2021/07/22 03:46:38;;;;;;;32.58;22.30;;;;;;;;;;2073714;28;20173;-56
2021/07/22 03:47:40;;;;;;;32.40;23.58;;;;;;;;;;2067475;28;20173;-58
2021/07/22 03:48:41;;;;;;;32.22;23.98;;;;;;;;;;2073097;28;20177;-50
2021/07/22 03:49:42;;;;;;;33.38;23.35;;;;;;;;;;2073029;28;20657;-53
2021/07/22 03:50:53;;;;;;;33.60;24.38;;;;;;;;;;2073230;28;20153;-56
2021/07/22 03:51:54;;;;;;;33.92;23.98;;;;;;;;;;2073406;28;20187;-54
2021/07/22 03:52:57;;;;;;;29.02;22.58;;;;;;;;;;2061116;28;20217;-52
2021/07/22 03:53:58;;;;;;;30.35;22.05;;;;;;;;;;2065751;28;20619;-53
2021/07/22 03:54:59;;;;;;;32.60;22.35;;;;;;;;;;2065701;28;20265;-58
2021/07/22 03:56:01;;;;;;;28.45;22.17;;;;;;;;;;2066654;28;20177;-49
2021/07/22 03:57:12;;;;;;;29.20;21.52;;;;;;;;;;2065796;28;20174;-54
2021/07/22 03:58:13;;;;;;;30.20;22.33;;;;;;;;;;2073833;28;20201;-53
2021/07/22 03:59:22;;;;;;;29.48;22.38;;;;;;;;;;2073958;28;20169;-54
2021/07/22 04:00:27;;;;;;;28.40;21.52;;;;;;;;;;2074453;28;20177;-56
2021/07/22 04:01:36;;;;;;;23.92;19.70;;;;;;;;;;2074030;28;20271;-54
2021/07/22 04:02:46;;;;;;;30.20;21.58;;;;;;;;;;2071858;28;20170;-57
2021/07/22 04:03:47;;;;;;;28.65;20.88;;;;;;;;;;2073683;28;20256;-56
2021/07/22 04:04:48;;;;;;;27.88;21.42;;;;;;;;;;2067418;28;20165;-56
2021/07/22 04:05:51;;;;;;;26.23;19.52;;;;;;;;;;2065942;28;20170;-55
2021/07/22 04:06:52;;;;;;;25.35;20.42;;;;;;;;;;2074458;28;20173;-54
2021/07/22 04:08:08;;;;;;;26.02;19.58;;;;;;;;;;2066488;28;20264;-56
2021/07/22 04:09:17;;;;;;;27.27;19.85;;;;;;;;;;2058782;28;20178;-54
2021/07/22 04:10:38;;;;;;;28.50;19.92;;;;;;;;;;2070478;28;20673;-55
2021/07/22 04:11:57;;;;;;;26.27;18.80;;;;;;;;;;2070048;28;20177;-57
2021/07/22 04:13:17;;;;;;;27.20;20.33;;;;;;;;;;2048621;29;20191;-57
2021/07/22 04:14:38;;;;;;;26.67;19.85;;;;;;;;;;2062078;28;20190;-52
2021/07/22 04:15:46;;;;;;;24.48;20.02;;;;;;;;;;2066839;28;20154;-57
2021/07/22 04:17:13;;;;;;;27.15;20.38;;;;;;;;;;2050666;28;20242;-56
2021/07/22 04:18:32;;;;;;;27.08;20.48;;;;;;;;;;2066266;28;20642;-56
2021/07/22 04:19:51;;;;;;;24.55;19.50;;;;;;;;;;2066372;28;20158;-52
2021/07/22 04:21:14;;;;;;;25.10;19.73;;;;;;;;;;2065834;28;20296;-57
2021/07/22 04:22:47;;;;;;;24.52;19.38;;;;;;;;;;2068221;28;20653;-56
2021/07/22 04:24:05;;;;;;;23.40;19.17;;;;;;;;;;2073466;28;20188;-53
2021/07/22 04:25:12;;;;;;;28.75;20.25;;;;;;;;;;2069344;28;20177;-55
2021/07/22 04:26:26;;;;;;;29.48;20.95;;;;;;;;;;2066244;28;20196;-52
2021/07/22 04:27:42;;;;;;;27.13;20.95;;;;;;;;;;2069288;28;20566;-58
2021/07/22 04:28:46;;;;;;;25.65;20.20;;;;;;;;;;2068609;28;20184;-54
2021/07/22 04:29:47;;;;;;;26.95;19.60;;;;;;;;;;2072815;28;20166;-55
2021/07/22 04:30:47;;;;;;;27.48;20.55;;;;;;;;;;2073563;28;20184;-55
2021/07/22 04:31:51;;;;;;;31.73;20.33;;;;;;;;;;2066152;28;20541;-57
2021/07/22 04:32:58;;;;;;;23.88;19.00;;;;;;;;;;2071908;28;20181;-54
2021/07/22 04:34:17;;;;;;;27.00;19.77;;;;;;;;;;2068689;28;20177;-52
2021/07/22 04:35:23;;;;;;;27.42;18.90;;;;;;;;;;2067113;28;20259;-58
2021/07/22 04:36:45;;;;;;;25.08;19.02;;;;;;;;;;2058098;28;20180;-55
2021/07/22 04:37:58;;;;;;;26.33;18.80;;;;;;;;;;2069808;28;20260;-52
2021/07/22 04:39:07;;;;;;;23.02;19.00;;;;;;;;;;2070738;28;20216;-51
2021/07/22 04:40:34;;;;;;;24.10;17.77;;;;;;;;;;2063356;28;20175;-52
2021/07/22 04:41:46;;;;;;;26.25;18.00;;;;;;;;;;2068194;28;20740;-54
2021/07/22 04:43:06;;;;;;;23.27;17.92;;;;;;;;;;2071965;28;20600;-52
2021/07/22 04:44:42;;;;;;;25.50;19.30;;;;;;;;;;2066432;28;20626;-57
2021/07/22 04:46:21;;;;;;;22.75;17.45;;;;;;;;;;2067795;28;20189;-53
2021/07/22 04:47:36;;;;;;;24.00;17.90;;;;;;;;;;2068141;28;20174;-54
2021/07/22 04:49:02;;;;;;;24.50;18.05;;;;;;;;;;2044924;28;20179;-53
2021/07/22 04:50:10;;;;;;;22.65;18.65;;;;;;;;;;2072047;28;20185;-56
2021/07/22 04:51:31;;;;;;;23.30;18.15;;;;;;;;;;2043895;29;20212;-57
2021/07/22 04:52:54;;;;;;;23.73;18.92;;;;;;;;;;2069087;28;20276;-56
2021/07/22 04:54:05;;;;;;;22.45;18.08;;;;;;;;;;2067397;28;20259;-57
2021/07/22 04:55:06;;;;;;;23.67;18.40;;;;;;;;;;2069939;28;20709;-54
2021/07/22 04:56:08;;;;;;;21.92;16.65;;;;;;;;;;2067719;28;20255;-59
2021/07/22 04:57:10;;;;;;;20.85;17.58;;;;;;;;;;2072668;28;20171;-53
2021/07/22 04:58:13;;;;;;;28.10;20.35;;;;;;;;;;2069087;28;20780;-56
2021/07/22 04:59:14;;;;;;;22.40;17.88;;;;;;;;;;2069166;28;20180;-59
2021/07/22 05:00:14;;;;;;;23.70;17.98;;;;;;;;;;2069978;28;20220;-59
2021/07/22 05:01:24;;;;;;;25.25;19.35;;;;;;;;;;2067963;28;20585;-58
2021/07/22 05:02:25;;;;;;;31.67;25.00;;;;;;;;;;2069536;28;20207;-58
2021/07/22 05:03:26;;;;;;;22.80;18.77;;;;;;;;;;2067694;28;20182;-58
2021/07/22 05:04:27;;;;;;;19.98;16.20;;;;;;;;;;2065896;28;20181;-56
2021/07/22 05:05:36;;;;;;;21.00;17.15;;;;;;;;;;2070874;28;20299;-56
2021/07/22 05:06:54;;;;;;;23.77;19.27;;;;;;;;;;2072124;28;20176;-54
2021/07/22 05:08:18;;;;;;;21.08;15.95;;;;;;;;;;2068743;28;20619;-52
2021/07/22 05:09:24;;;;;;;27.40;21.17;;;;;;;;;;2068416;28;20166;-53
2021/07/22 05:10:42;;;;;;;21.25;16.33;;;;;;;;;;2068709;28;20559;-51
2021/07/22 05:11:52;;;;;;;22.98;16.80;;;;;;;;;;2068435;28;20158;-57
2021/07/22 05:13:14;;;;;;;16.92;15.07;;;;;;;;;;2065454;28;20625;-52
2021/07/22 05:14:36;;;;;;;24.42;16.30;;;;;;;;;;2071326;28;20200;-53
2021/07/22 05:15:55;;;;;;;19.80;15.82;;;;;;;;;;2071226;28;20190;-51
2021/07/22 05:17:07;;;;;;;19.40;15.40;;;;;;;;;;2065395;28;20192;-52
2021/07/22 05:18:26;;;;;;;22.55;14.95;;;;;;;;;;2065679;28;20154;-52
2021/07/22 05:19:45;;;;;;;19.92;15.48;;;;;;;;;;2065914;28;20174;-51
2021/07/22 05:21:11;;;;;;;21.42;15.50;;;;;;;;;;2049592;28;20579;-49
2021/07/22 05:22:22;;;;;;;18.33;15.43;;;;;;;;;;2066017;28;20539;-51
2021/07/22 05:23:44;;;;;;;20.50;15.18;;;;;;;;;;2065843;28;20181;-51
2021/07/22 05:25:00;;;;;;;18.95;15.25;;;;;;;;;;2070242;28;20184;-50
2021/07/22 05:26:10;;;;;;;19.73;15.68;;;;;;;;;;2059662;28;20191;-49
2021/07/22 05:27:33;;;;;;;19.00;15.35;;;;;;;;;;2066305;28;20177;-51
2021/07/22 05:28:51;;;;;;;19.45;15.45;;;;;;;;;;2069613;28;20204;-53
2021/07/22 05:29:58;;;;;;;21.15;17.08;;;;;;;;;;2070455;28;20172;-56
2021/07/22 05:31:13;;;;;;;21.10;15.68;;;;;;;;;;2064082;28;20212;-57
2021/07/22 05:32:30;;;;;;;15.63;13.80;;;;;;;;;;2064350;28;20209;-56
2021/07/22 05:33:35;;;;;;;18.00;14.55;;;;;;;;;;2067645;28;20193;-57
2021/07/22 05:34:44;;;;;;;18.67;14.52;;;;;;;;;;2073224;28;20174;-54
2021/07/22 05:36:08;;;;;;;15.48;13.88;;;;;;;;;;2065427;28;20701;-55
2021/07/22 05:37:13;;;;;;;15.80;12.68;;;;;;;;;;2072611;28;20189;-53
2021/07/22 05:38:24;;;;;;;14.80;13.25;;;;;;;;;;2068186;28;20160;-54
2021/07/22 05:39:24;;;;;;;16.92;12.45;;;;;;;;;;2070707;28;20207;-53
2021/07/22 05:40:25;;;;;;;13.63;12.02;;;;;;;;;;2067265;28;20193;-53
2021/07/22 05:41:25;;;;;;;16.73;13.25;;;;;;;;;;2068505;28;20299;-54
2021/07/22 05:42:26;;;;;;;18.52;13.52;;;;;;;;;;2068569;28;20177;-57
2021/07/22 05:43:27;;;;;;;15.38;11.75;;;;;;;;;;2072647;28;20868;-55
2021/07/22 05:44:28;;;;;;;17.20;13.18;;;;;;;;;;2072209;28;20755;-55
2021/07/22 05:45:28;;;;;;;14.93;12.63;;;;;;;;;;2071306;28;20267;-60
2021/07/22 05:46:30;;;;;;;16.42;12.75;;;;;;;;;;2071948;28;20226;-54
2021/07/22 05:47:30;;;;;;;16.48;13.00;;;;;;;;;;2070030;28;20184;-55
2021/07/22 05:48:30;;;;;;;15.93;13.27;;;;;;;;;;2069794;28;20188;-48
2021/07/22 05:49:31;;;;;;;16.05;12.93;;;;;;;;;;2067973;28;20182;-51
2021/07/22 05:50:31;;;;;;;16.05;13.30;;;;;;;;;;2071864;28;20184;-47
2021/07/22 05:51:32;;;;;;;17.35;12.38;;;;;;;;;;2070556;28;20197;-49
2021/07/22 05:52:32;;;;;;;14.65;12.98;;;;;;;;;;2067050;28;20213;-56
2021/07/22 05:53:33;;;;;;;12.90;11.60;;;;;;;;;;2067367;28;20174;-50
2021/07/22 05:54:33;;;;;;;13.85;11.93;;;;;;;;;;2069082;28;20192;-55
2021/07/22 05:55:34;;;;;;;14.45;12.18;;;;;;;;;;2061563;28;20171;-56
2021/07/22 05:56:35;;;;;;;15.73;13.10;;;;;;;;;;2068431;28;20185;-50
2021/07/22 05:57:35;;;;;;;13.73;11.95;;;;;;;;;;2065910;28;20181;-49
2021/07/22 05:58:36;;;;;;;13.18;11.77;;;;;;;;;;2068010;28;20576;-53
2021/07/22 05:59:36;;;;;;;15.00;12.43;;;;;;;;;;2070727;28;20649;-51
2021/07/22 06:00:36;;;;;;;14.15;12.55;;;;;;;;;;2066995;28;20348;-50
2021/07/22 06:01:37;;;;;;;13.52;11.80;;;;;;;;;;2061843;28;20205;-55
2021/07/22 06:02:37;;;;;;;21.15;12.07;;;;;;;;;;2072449;28;20215;-54
2021/07/22 06:03:37;;;;;;;13.32;11.95;;;;;;;;;;2066201;28;20192;-54
2021/07/22 06:04:38;;;;;;;14.32;12.73;;;;;;;;;;2070503;28;20204;-51
2021/07/22 06:05:38;;;;;;;14.55;11.27;;;;;;;;;;2067022;28;20319;-51
2021/07/22 06:06:42;;;;;;;17.13;12.82;;;;;;;;;;2066843;28;20185;-50
2021/07/22 06:07:43;;;;;;;15.50;12.68;;;;;;;;;;2072810;28;20223;-51
2021/07/22 06:08:43;;;;;;;15.23;12.50;;;;;;;;;;2068351;28;20912;-50
2021/07/22 06:09:43;;;;;;;15.25;11.80;;;;;;;;;;2064694;28;20264;-55
2021/07/22 06:10:44;;;;;;;15.52;12.68;;;;;;;;;;2072812;28;20172;-50
2021/07/22 06:11:44;;;;;;;14.07;12.57;;;;;;;;;;2069737;28;20719;-53
2021/07/22 06:12:44;;;;;;;16.92;12.52;;;;;;;;;;2064839;28;20304;-51
2021/07/22 06:13:45;;;;;;;14.57;12.68;;;;;;;;;;2072055;28;20691;-54
2021/07/22 06:14:45;;;;;;;13.38;11.45;;;;;;;;;;2069129;28;20185;-49
2021/07/22 06:15:45;;;;;;;14.32;12.80;;;;;;;;;;2056211;28;20170;-49
2021/07/22 06:16:45;;;;;;;15.75;12.20;;;;;;;;;;2053537;28;20635;-54
2021/07/22 06:17:46;;;;;;;12.63;11.40;;;;;;;;;;2057591;28;20194;-56
2021/07/22 06:18:46;;;;;;;17.77;12.45;;;;;;;;;;2072857;28;20165;-54